Time;durP1;ratioP1;P1;durP2;ratioP2;P2;SDS_P1;SDS_P2;PMS_P1;PMS_P2;Temp;Humidity;BMP_temperature;BMP_pressure;BME280_temperature;BME280_humidity;BME280_pressure;Samples;Min_cycle;Max_cycle;Signal;HPM_P1;HPM_P2
2022/04/22 00:05:50;;;;;;;;;;;;;;;10.07;47.46;99257.44;4310632;32;33557;-77
2022/04/22 00:08:53;;;;;;;;;;;;;;;10.09;47.37;99263.44;4312404;33;34703;-77
2022/04/22 00:27:39;;;;;;;;;;;;;;;10.39;48.49;99240.88;4333953;33;33139;-78
2022/04/22 00:33:09;;;;;;;;;;;;;;;;;;;;;
2022/04/22 00:37:03;;;;;;;;;;;;;;;10.30;48.28;99234.66;4343483;33;35891;-77
2022/04/22 00:46:01;;;;;;;;;;;;;;;10.55;48.69;99215.22;4296751;33;34767;-77
2022/04/22 00:58:36;;;;;;;;;;;;;;;10.40;47.67;99198.16;4289069;33;36086;-77
2022/04/22 01:11:51;;;;;;;;;;;;;;;10.61;48.21;99195.13;4337050;33;36075;-77
2022/04/22 01:17:47;;;;;;;;;;;;;;;;;;;;;
2022/04/22 01:20:50;;;;;;;;;;;;;;;;;;;;;
2022/04/22 01:23:54;;;;;;;;;;;;;;;10.78;48.41;99172.94;4387816;32;36728;-76
2022/04/22 01:33:11;;;;;;;;;;;;;;;;;;;;;
2022/04/22 01:36:22;;;;;;;;;;;;;;;10.90;48.50;99163.66;4363222;32;35036;-77
2022/04/22 01:39:49;;;;;;;;;;;;;;;10.94;48.14;99159.69;4374792;32;35783;-77
2022/04/22 01:45:46;;;;;;;;;;;;;;;;;;;;;
2022/04/22 01:49:00;;;;;;;;;;;;;;;10.95;47.86;99140.88;4360330;32;36108;-77
2022/04/22 01:52:09;;;;;;;;;;;;;;;10.98;47.68;99129.94;4332064;33;34416;-77
2022/04/22 01:55:28;;;;;;;;;;;;;;;;;;;;;
2022/04/22 02:01:28;;;;;;;;;;;;;;;11.01;47.81;99104.78;4332579;33;34472;-77
2022/04/22 02:04:32;;;;;;;;;;;;;;;11.01;47.73;99110.97;4332727;33;33719;-77
2022/04/22 02:10:52;;;;;;;;;;;;;;;10.95;47.56;99110.78;4345148;33;33593;-76
2022/04/22 02:14:02;;;;;;;;;;;;;;;10.90;47.70;99116.59;4367599;32;34720;-77
2022/04/22 02:20:47;;;;;;;;;;;;;;;10.81;48.78;99114.91;4368215;32;32845;-77
2022/04/22 02:23:23;;;;;;;;;;;;;;;;;;;;;
2022/04/22 02:30:19;;;;;;;;;;;;;;;10.82;49.18;99107.75;4436592;32;33884;-77
2022/04/22 02:33:11;;;;;;;;;;;;;;;10.60;48.91;99103.03;4426182;32;32493;-77
2022/04/22 02:39:15;;;;;;;;;;;;;;;;;;;;;
2022/04/22 02:53:01;;;;;;;;;;;;;;;11.05;49.39;99085.69;4404455;32;36375;-77
2022/04/22 02:55:24;;;;;;;;;;;;;;;10.86;48.73;99077.19;4385566;32;34622;-77
2022/04/22 03:02:00;;;;;;;;;;;;;;;10.93;48.72;99070.22;4379934;32;33552;-77
2022/04/22 03:05:49;;;;;;;;;;;;;;;10.85;49.23;99070.19;4331810;32;36145;-77
2022/04/22 03:11:21;;;;;;;;;;;;;;;11.21;49.04;99066.25;4389672;32;33842;-77
2022/04/22 03:17:31;;;;;;;;;;;;;;;11.28;49.44;99055.56;4380694;32;35023;-77
2022/04/22 03:20:28;;;;;;;;;;;;;;;11.33;49.55;99052.41;4378932;32;33238;-77
2022/04/22 03:26:38;;;;;;;;;;;;;;;11.36;49.22;99041.44;4404003;32;33360;-77
2022/04/22 03:29:48;;;;;;;;;;;;;;;11.33;49.54;99044.44;4402388;32;35350;-78
2022/04/22 03:35:55;;;;;;;;;;;;;;;11.44;48.99;99039.59;4407897;32;33407;-77
2022/04/22 03:42:22;;;;;;;;;;;;;;;11.44;49.08;99031.59;4269116;32;3756874;-77
2022/04/22 03:48:47;;;;;;;;;;;;;;;;;;;;;
2022/04/22 03:51:39;;;;;;;;;;;;;;;11.23;47.88;99029.62;4398118;32;34088;-77
2022/04/22 04:07:20;;;;;;;;;;;;;;;;;;;;;
2022/04/22 04:29:49;;;;;;;;;;;;;;;11.73;44.44;99028.44;4367031;32;34363;-79
2022/04/22 04:32:35;;;;;;;;;;;;;;;;;;;;;
2022/04/22 04:35:54;;;;;;;;;;;;;;;11.61;44.82;99027.97;4372819;32;35234;-78
2022/04/22 04:39:06;;;;;;;;;;;;;;;;;;;;;
2022/04/22 04:45:22;;;;;;;;;;;;;;;11.59;45.07;99035.28;4397803;32;35853;-80
2022/04/22 04:51:45;;;;;;;;;;;;;;;11.59;45.18;99023.78;4344779;33;33235;-76
2022/04/22 04:55:38;;;;;;;;;;;;;;;11.64;45.31;99038.28;4357216;32;34185;-78
2022/04/22 05:01:30;;;;;;;;;;;;;;;11.88;45.34;99024.06;4345933;33;34531;-78
2022/04/22 05:11:56;;;;;;;;;;;;;;;11.39;46.48;99046.44;4359830;32;35104;-76
2022/04/22 05:14:21;;;;;;;;;;;;;;;11.39;46.66;99047.28;4355906;32;34454;-78
2022/04/22 05:17:41;;;;;;;;;;;;;;;;;;;;;
2022/04/22 05:24:15;;;;;;;;;;;;;;;11.40;45.93;99050.75;4315386;33;35384;-76
2022/04/22 05:27:06;;;;;;;;;;;;;;;11.28;46.25;99060.09;4364093;32;35041;-78
2022/04/22 05:36:06;;;;;;;;;;;;;;;11.08;46.08;99053.44;4280407;33;34604;-79
2022/04/22 05:39:30;;;;;;;;;;;;;;;11.17;46.75;99055.09;4266469;33;35202;-77
2022/04/22 05:49:20;;;;;;;;;;;;;;;11.36;45.40;99047.59;4278330;33;34826;-78
2022/04/22 05:51:54;;;;;;;;;;;;;;;11.46;44.78;99044.78;4278603;33;33963;-78
2022/04/22 06:04:54;;;;;;;;;;;;;;;;;;;;;
2022/04/22 06:33:08;;;;;;;;;;;;;;;11.52;44.54;99010.28;4296820;33;34219;-78
2022/04/22 06:36:16;;;;;;;;;;;;;;;11.68;44.59;99012.97;4320662;32;34736;-78
2022/04/22 06:39:06;;;;;;;;;;;;;;;11.99;43.65;99013.88;4344224;32;34525;-77
2022/04/22 06:48:11;;;;;;;;;;;;;;;11.90;43.40;99004.22;4368517;32;34515;-78
2022/04/22 06:51:46;;;;;;;;;;;;;;;12.26;42.48;99004.59;4382518;32;33684;-78
2022/04/22 06:57:31;;;;;;;;;;;;;;;12.24;42.07;99010.13;4414482;32;32579;-77
2022/04/22 07:10:34;;;;;;;;;;;;;;;11.96;43.49;98998.22;4426556;32;34727;-78
2022/04/22 07:12:56;;;;;;;;;;;;;;;12.14;43.47;99008.66;4421759;32;32920;-78
2022/04/22 07:23:15;;;;;;;;;;;;;;;;;;;;;
2022/04/22 07:26:27;;;;;;;;;;;;;;;12.47;42.68;99012.84;4283813;33;32579;-78
2022/04/22 07:29:22;;;;;;;;;;;;;;;12.49;44.29;99008.16;4347685;32;35124;-77
2022/04/22 07:32:27;;;;;;;;;;;;;;;12.72;46.08;99012.50;4342760;32;33369;-77
2022/04/22 07:35:27;;;;;;;;;;;;;;;12.70;46.02;99000.34;4360478;26;33464;-83
2022/04/22 07:38:15;;;;;;;;;;;;;;;12.37;46.93;98997.03;4434176;32;34272;-83
2022/04/22 07:40:48;;;;;;;;;;;;;;;12.56;47.93;98993.91;4406315;32;34179;-84
2022/04/22 07:49:11;;;;;;;;;;;;;;;12.04;49.90;98992.03;4442515;32;34366;-84
2022/04/22 07:51:42;;;;;;;;;;;;;;;12.02;50.76;98994.03;4455478;32;35438;-87
2022/04/22 07:54:14;;;;;;;;;;;;;;;12.27;50.86;98996.41;4431657;32;34452;-84
2022/04/22 07:56:45;;;;;;;;;;;;;;;12.26;51.77;98991.25;4425630;32;33769;-85
2022/04/22 07:59:13;;;;;;;;;;;;;;;12.37;52.01;98993.56;4420039;32;32763;-84
2022/04/22 08:01:42;;;;;;;;;;;;;;;12.58;51.25;98999.09;4424495;32;33673;-87
2022/04/22 08:04:11;;;;;;;;;;;;;;;12.42;52.40;98989.34;4440535;32;33308;-84
2022/04/22 08:06:41;;;;;;;;;;;;;;;12.44;51.64;98986.50;4443541;32;33395;-86
2022/04/22 08:09:14;;;;;;;;;;;;;;;12.51;51.79;98990.97;4427712;32;33095;-85
2022/04/22 08:11:43;;;;;;;;;;;;;;;12.56;50.41;98991.25;4440976;32;34929;-87
2022/04/22 08:14:12;;;;;;;;;;;;;;;12.32;52.99;99001.22;4439066;32;34583;-84
2022/04/22 08:16:40;;;;;;;;;;;;;;;12.35;52.92;98995.53;4435647;32;32002;-85
2022/04/22 08:19:16;;;;;;;;;;;;;;;12.51;52.68;98993.63;4436731;32;33803;-84
2022/04/22 08:21:46;;;;;;;;;;;;;;;12.00;52.82;98988.06;4427712;32;35799;-83
2022/04/22 08:24:20;;;;;;;;;;;;;;;11.96;55.59;98984.91;4440200;32;33082;-87
2022/04/22 08:26:52;;;;;;;;;;;;;;;12.05;55.51;98993.69;4449383;32;34376;-85
2022/04/22 08:29:22;;;;;;;;;;;;;;;11.95;56.03;98988.56;4437644;32;33950;-86
2022/04/22 08:31:55;;;;;;;;;;;;;;;11.90;56.87;98984.75;4436743;32;35339;-86
2022/04/22 08:34:26;;;;;;;;;;;;;;;11.68;58.14;98990.81;4436431;32;32915;-85
2022/04/22 08:36:55;;;;;;;;;;;;;;;11.86;58.34;98980.75;4435362;32;33819;-85
2022/04/22 08:39:24;;;;;;;;;;;;;;;11.48;60.50;98982.34;4435150;32;34162;-86
2022/04/22 08:41:56;;;;;;;;;;;;;;;11.41;60.40;98984.03;4424178;32;35008;-88
2022/04/22 08:44:44;;;;;;;;;;;;;;;11.28;60.49;98974.88;4443315;32;33951;-87
2022/04/22 08:50:17;;;;;;;;;;;;;;;11.46;62.17;98968.34;4424731;32;32299;-87
2022/04/22 08:52:56;;;;;;;;;;;;;;;11.49;62.95;98959.19;4436961;32;34143;-87
2022/04/22 08:55:37;;;;;;;;;;;;;;;11.52;62.36;98951.69;4462515;32;33546;-87
2022/04/22 08:58:08;;;;;;;;;;;;;;;11.05;65.26;98968.56;4408859;32;32570;-87
2022/04/22 09:00:59;;;;;;;;;;;;;;;11.29;65.40;98952.56;4421647;32;33582;-86
2022/04/22 09:03:47;;;;;;;;;;;;;;;11.36;66.15;98943.72;4433018;32;36457;-86
2022/04/22 09:06:20;;;;;;;;;;;;;;;11.69;66.32;98942.69;4425747;32;35487;-86
2022/04/22 09:08:50;;;;;;;;;;;;;;;11.61;66.29;98928.53;4447408;32;32191;-88
2022/04/22 09:11:20;;;;;;;;;;;;;;;11.59;67.47;98933.22;4449659;32;33205;-86
2022/04/22 09:13:53;;;;;;;;;;;;;;;11.63;66.89;98916.72;4412476;32;33926;-85
2022/04/22 09:16:24;;;;;;;;;;;;;;;11.48;69.79;98918.44;4413881;32;33125;-87
2022/04/22 09:19:00;;;;;;;;;;;;;;;11.56;70.31;98914.91;4440712;32;34176;-86
2022/04/22 09:21:57;;;;;;;;;;;;;;;11.51;70.40;98918.06;4463820;32;33835;-88
2022/04/22 09:24:29;;;;;;;;;;;;;;;11.50;69.70;98913.75;4434322;32;34157;-86
2022/04/22 09:27:05;;;;;;;;;;;;;;;11.42;70.19;98911.09;4413279;32;33781;-87
2022/04/22 09:29:41;;;;;;;;;;;;;;;11.40;69.46;98893.63;4425604;32;32378;-85
2022/04/22 09:32:27;;;;;;;;;;;;;;;11.38;69.72;98885.00;4433523;32;33837;-85
2022/04/22 09:34:59;;;;;;;;;;;;;;;11.24;70.45;98903.50;4450987;32;35406;-87
2022/04/22 09:43:37;;;;;;;;;;;;;;;11.13;71.85;98875.41;4439297;32;34058;-87
2022/04/22 09:46:24;;;;;;;;;;;;;;;11.46;71.86;98874.31;4415540;32;33890;-86
2022/04/22 09:48:56;;;;;;;;;;;;;;;11.72;69.76;98873.06;4414103;32;34943;-87
2022/04/22 09:51:30;;;;;;;;;;;;;;;11.68;69.99;98876.25;4439262;32;33295;-86
2022/04/22 09:54:19;;;;;;;;;;;;;;;11.61;70.81;98864.63;4436142;32;33910;-88
2022/04/22 09:56:56;;;;;;;;;;;;;;;12.02;69.47;98879.41;4451843;32;35068;-87
2022/04/22 09:59:28;;;;;;;;;;;;;;;11.74;70.01;98875.56;4437582;32;34584;-86
2022/04/22 10:01:58;;;;;;;;;;;;;;;11.77;68.97;98864.53;4426163;32;33039;-87
2022/04/22 10:04:34;;;;;;;;;;;;;;;11.79;70.08;98881.19;4415580;32;34072;-87
2022/04/22 10:07:02;;;;;;;;;;;;;;;11.78;69.34;98876.84;4440100;32;34959;-86
2022/04/22 10:09:30;;;;;;;;;;;;;;;11.85;68.47;98878.69;4454712;32;34827;-85
2022/04/22 10:12:15;;;;;;;;;;;;;;;11.56;69.56;98882.94;4431298;32;33365;-84
2022/04/22 10:14:44;;;;;;;;;;;;;;;11.88;68.03;98867.66;4426330;32;34674;-86
2022/04/22 10:17:14;;;;;;;;;;;;;;;12.02;67.59;98871.41;4438177;32;35371;-85
2022/04/22 10:19:44;;;;;;;;;;;;;;;11.67;68.90;98867.44;4429052;32;33650;-86
2022/04/22 10:22:11;;;;;;;;;;;;;;;12.35;68.74;98868.34;4450267;32;33148;-84
2022/04/22 10:24:49;;;;;;;;;;;;;;;12.48;66.30;98865.09;4439924;32;34085;-85
2022/04/22 10:27:17;;;;;;;;;;;;;;;12.48;65.49;98860.59;4437431;32;34218;-84
2022/04/22 10:29:50;;;;;;;;;;;;;;;12.78;64.25;98850.84;4452816;32;34792;-84
2022/04/22 10:32:20;;;;;;;;;;;;;;;12.54;65.26;98845.69;4425650;32;33159;-85
2022/04/22 10:34:50;;;;;;;;;;;;;;;12.61;63.87;98855.50;4427448;32;32475;-83
2022/04/22 10:37:26;;;;;;;;;;;;;;;12.40;65.04;98851.81;4438511;32;34254;-85
2022/04/22 10:39:59;;;;;;;;;;;;;;;12.83;63.51;98851.94;4452131;32;34090;-86
2022/04/22 10:42:31;;;;;;;;;;;;;;;12.52;63.70;98850.37;4437941;32;33285;-86
2022/04/22 10:48:18;;;;;;;;;;;;;;;12.79;63.21;98842.66;4442775;32;35737;-84
2022/04/22 10:50:57;;;;;;;;;;;;;;;12.53;64.70;98841.38;4444171;32;33284;-83
2022/04/22 10:53:27;;;;;;;;;;;;;;;12.42;64.74;98823.97;4438818;32;33900;-85
2022/04/22 10:56:18;;;;;;;;;;;;;;;12.89;63.68;98827.22;4439275;32;34832;-85
2022/04/22 10:58:46;;;;;;;;;;;;;;;13.10;63.24;98827.34;4422622;32;35290;-83
2022/04/22 11:01:28;;;;;;;;;;;;;;;12.67;63.78;98827.25;4417960;32;33433;-84
2022/04/22 11:04:27;;;;;;;;;;;;;;;13.05;62.74;98824.38;4457604;32;33087;-84
2022/04/22 11:06:56;;;;;;;;;;;;;;;12.90;63.28;98828.00;4438084;32;32669;-84
2022/04/22 11:09:29;;;;;;;;;;;;;;;12.78;63.83;98826.81;4455301;32;36338;-85
2022/04/22 11:12:22;;;;;;;;;;;;;;;12.63;63.99;98829.44;4435093;32;33388;-86
2022/04/22 11:14:51;;;;;;;;;;;;;;;12.96;63.20;98817.47;4440147;32;32842;-84
2022/04/22 11:17:31;;;;;;;;;;;;;;;12.97;63.86;98815.62;4446635;32;34883;-83
2022/04/22 11:19:59;;;;;;;;;;;;;;;13.03;62.63;98807.72;4436106;32;35427;-85
2022/04/22 11:22:52;;;;;;;;;;;;;;;13.21;62.16;98810.84;4440012;32;34786;-85
2022/04/22 11:25:25;;;;;;;;;;;;;;;13.51;61.42;98803.66;4436938;32;31883;-84
2022/04/22 11:27:54;;;;;;;;;;;;;;;13.30;61.04;98804.41;4434734;32;33317;-86
2022/04/22 11:30:26;;;;;;;;;;;;;;;13.61;60.25;98802.34;4444716;32;35718;-83
2022/04/22 11:32:56;;;;;;;;;;;;;;;13.56;58.82;98795.91;4430391;32;33005;-85
2022/04/22 11:35:36;;;;;;;;;;;;;;;13.21;59.91;98792.16;4432991;32;33799;-85
2022/04/22 11:38:10;;;;;;;;;;;;;;;13.24;59.27;98791.78;4451044;32;33701;-83
2022/04/22 11:40:47;;;;;;;;;;;;;;;13.40;58.33;98794.25;4450714;32;35547;-81
2022/04/22 11:43:32;;;;;;;;;;;;;;;13.57;57.83;98792.19;4452764;32;35127;-85
2022/04/22 11:46:00;;;;;;;;;;;;;;;13.36;58.21;98792.16;4435137;32;32957;-83
2022/04/22 11:48:28;;;;;;;;;;;;;;;13.57;58.72;98797.53;4435724;32;34164;-87
2022/04/22 11:50:57;;;;;;;;;;;;;;;13.44;56.21;98784.88;4436237;32;35237;-83
2022/04/22 11:53:32;;;;;;;;;;;;;;;13.75;57.32;98782.78;4436268;32;33568;-84
2022/04/22 11:56:02;;;;;;;;;;;;;;;14.12;54.52;98787.91;4426996;32;34335;-82
2022/04/22 11:58:32;;;;;;;;;;;;;;;14.21;54.04;98769.91;4437607;32;32802;-84
2022/04/22 12:06:54;;;;;;;;;;;;;;;14.29;52.76;98759.06;4439360;32;33472;-85
2022/04/22 12:09:24;;;;;;;;;;;;;;;14.55;53.29;98752.91;4437333;32;33572;-83
2022/04/22 12:11:53;;;;;;;;;;;;;;;14.64;51.71;98751.75;4450555;32;35034;-83
2022/04/22 12:14:24;;;;;;;;;;;;;;;14.68;51.09;98750.34;4452471;32;33276;-83
2022/04/22 12:16:59;;;;;;;;;;;;;;;14.90;50.61;98735.03;4426121;32;32663;-82
2022/04/22 12:19:27;;;;;;;;;;;;;;;15.12;49.77;98726.72;4424317;32;33716;-84
2022/04/22 12:22:04;;;;;;;;;;;;;;;15.12;50.42;98718.66;4435556;32;35235;-83
2022/04/22 12:24:32;;;;;;;;;;;;;;;15.33;49.18;98712.41;4434375;32;35094;-85
2022/04/22 12:27:01;;;;;;;;;;;;;;;15.17;45.79;98704.69;4434402;32;32817;-85
2022/04/22 12:29:30;;;;;;;;;;;;;;;14.78;45.81;98707.16;4421670;32;34661;-82
2022/04/22 12:31:59;;;;;;;;;;;;;;;14.55;46.31;98710.09;4434181;32;34155;-84
2022/04/22 12:34:31;;;;;;;;;;;;;;;14.45;46.31;98714.97;4449281;32;34846;-83
2022/04/22 12:37:17;;;;;;;;;;;;;;;14.45;45.71;98714.97;4439318;32;34612;-84
2022/04/22 12:39:49;;;;;;;;;;;;;;;14.99;47.27;98715.94;4438314;32;32958;-84
2022/04/22 12:42:20;;;;;;;;;;;;;;;14.93;45.28;98716.72;4412376;32;34297;-85
2022/04/22 12:53:46;;;;;;;;;;;;;;;14.79;42.31;98696.25;4457717;32;36201;-84
2022/04/22 12:56:13;;;;;;;;;;;;;;;14.69;41.79;98692.28;4439159;32;34204;-82
2022/04/22 12:58:55;;;;;;;;;;;;;;;14.57;42.55;98696.53;4453295;32;33361;-84
2022/04/22 13:01:27;;;;;;;;;;;;;;;14.42;43.37;98686.97;4438026;32;33206;-85
2022/04/22 13:03:57;;;;;;;;;;;;;;;14.60;42.85;98694.28;4426863;32;35278;-83
2022/04/22 13:06:39;;;;;;;;;;;;;;;14.60;43.01;98694.28;4428439;32;33542;-84
2022/04/22 13:09:09;;;;;;;;;;;;;;;14.69;42.60;98692.28;4419169;32;33020;-84
2022/04/22 13:11:36;;;;;;;;;;;;;;;14.92;42.48;98684.81;4426402;32;33566;-83
2022/04/22 13:14:04;;;;;;;;;;;;;;;14.76;42.94;98685.94;4442009;32;35236;-85
2022/04/22 13:16:32;;;;;;;;;;;;;;;14.73;42.31;98693.56;4430562;32;34622;-84
2022/04/22 13:19:08;;;;;;;;;;;;;;;14.93;42.96;98692.63;4451440;32;32876;-84
2022/04/22 13:21:37;;;;;;;;;;;;;;;15.11;41.40;98670.66;4432856;32;33146;-87
2022/04/22 13:24:05;;;;;;;;;;;;;;;15.13;41.40;98663.25;4439674;32;34445;-83
2022/04/22 13:26:32;;;;;;;;;;;;;;;14.77;41.50;98676.06;4424229;32;33467;-85
2022/04/22 13:29:02;;;;;;;;;;;;;;;14.66;41.38;98674.75;4427286;32;32279;-83
2022/04/22 13:31:30;;;;;;;;;;;;;;;14.75;41.90;98675.44;4450207;32;33332;-84
2022/04/22 13:34:18;;;;;;;;;;;;;;;15.02;41.53;98682.59;4440247;32;33527;-84
2022/04/22 13:36:45;;;;;;;;;;;;;;;14.77;40.85;98679.53;4438747;32;34409;-84
2022/04/22 13:39:12;;;;;;;;;;;;;;;14.61;41.90;98676.38;4453780;32;34031;-87
2022/04/22 13:41:43;;;;;;;;;;;;;;;14.56;41.23;98671.59;4452034;32;34895;-85
2022/04/22 13:44:12;;;;;;;;;;;;;;;14.61;41.24;98671.84;4450906;32;34729;-83
2022/04/22 13:52:25;;;;;;;;;;;;;;;14.97;40.95;98685.00;4441195;32;35151;-83
2022/04/22 13:54:53;;;;;;;;;;;;;;;14.93;41.07;98668.50;4441339;32;34772;-83
2022/04/22 13:57:24;;;;;;;;;;;;;;;14.63;41.54;98661.75;4407348;32;34887;-83
2022/04/22 13:59:54;;;;;;;;;;;;;;;14.29;42.42;98662.75;4444896;32;32357;-83
2022/04/22 14:02:22;;;;;;;;;;;;;;;14.34;43.34;98671.03;4408711;32;32966;-84
2022/04/22 14:04:50;;;;;;;;;;;;;;;14.51;42.25;98657.16;4433698;32;34818;-83
2022/04/22 14:07:20;;;;;;;;;;;;;;;14.75;42.48;98651.34;4427283;32;35098;-85
2022/04/22 14:09:48;;;;;;;;;;;;;;;14.89;41.46;98648.53;4453430;32;33015;-85
2022/04/22 14:12:18;;;;;;;;;;;;;;;14.72;41.87;98647.19;4426190;32;33707;-88
2022/04/22 14:14:46;;;;;;;;;;;;;;;14.71;41.55;98642.88;4443755;32;33619;-84
2022/04/22 14:17:15;;;;;;;;;;;;;;;14.63;42.67;98637.69;4429677;32;33751;-84
2022/04/22 14:19:46;;;;;;;;;;;;;;;14.82;42.09;98636.09;4427320;32;32622;-84
2022/04/22 14:22:15;;;;;;;;;;;;;;;14.78;43.71;98648.25;4408710;32;32420;-83
2022/04/22 14:24:49;;;;;;;;;;;;;;;14.66;42.41;98649.84;4429563;32;36089;-86
2022/04/22 14:27:19;;;;;;;;;;;;;;;15.03;42.45;98644.87;4432538;32;34843;-85
2022/04/22 14:29:49;;;;;;;;;;;;;;;15.10;42.02;98644.87;4425939;32;33326;-83
2022/04/22 14:32:19;;;;;;;;;;;;;;;15.34;42.76;98647.06;4428214;32;34662;-83
2022/04/22 14:34:47;;;;;;;;;;;;;;;15.20;40.59;98648.84;4420339;32;33267;-84
2022/04/22 14:37:16;;;;;;;;;;;;;;;14.92;42.03;98655.34;4450074;32;34320;-84
2022/04/22 14:39:45;;;;;;;;;;;;;;;15.13;42.15;98647.19;4426588;32;31699;-84
2022/04/22 14:42:13;;;;;;;;;;;;;;;15.14;41.15;98640.78;4439908;32;34821;-85
2022/04/22 14:44:44;;;;;;;;;;;;;;;15.19;40.53;98649.03;4442676;32;34372;-84
2022/04/22 14:47:12;;;;;;;;;;;;;;;14.91;40.64;98645.63;4427806;32;34328;-83
2022/04/22 14:49:41;;;;;;;;;;;;;;;14.76;41.54;98639.59;4451064;32;33719;-83
2022/04/22 14:52:10;;;;;;;;;;;;;;;14.68;41.47;98648.62;4440124;32;33373;-84
2022/04/22 14:54:38;;;;;;;;;;;;;;;14.75;41.09;98640.62;4434835;32;35625;-86
2022/04/22 14:57:08;;;;;;;;;;;;;;;14.49;41.92;98643.97;4452384;32;35383;-83
2022/04/22 14:59:37;;;;;;;;;;;;;;;14.53;41.53;98642.56;4450753;32;32664;-85
2022/04/22 15:02:05;;;;;;;;;;;;;;;14.76;41.36;98632.38;4439147;32;33925;-86
2022/04/22 15:04:40;;;;;;;;;;;;;;;14.85;41.25;98633.88;4451085;32;33819;-82
2022/04/22 15:07:08;;;;;;;;;;;;;;;14.77;41.12;98623.31;4418150;32;33041;-85
2022/04/22 15:09:37;;;;;;;;;;;;;;;14.74;41.54;98612.22;4436111;32;34068;-85
2022/04/22 15:12:06;;;;;;;;;;;;;;;14.65;41.32;98605.38;4438920;32;34689;-83
2022/04/22 15:14:35;;;;;;;;;;;;;;;14.73;40.96;98594.50;4440970;32;34185;-85
2022/04/22 15:17:03;;;;;;;;;;;;;;;14.89;39.86;98592.28;4436060;32;35398;-85
2022/04/22 15:25:07;;;;;;;;;;;;;;;14.46;40.61;98582.00;4443652;32;34770;-85
2022/04/22 15:27:36;;;;;;;;;;;;;;;14.56;40.87;98595.84;4432091;32;33530;-83
2022/04/22 15:30:12;;;;;;;;;;;;;;;14.66;41.29;98590.97;4438536;32;33450;-83
2022/04/22 15:32:40;;;;;;;;;;;;;;;14.94;40.66;98589.00;4449989;32;34943;-83
2022/04/22 15:35:10;;;;;;;;;;;;;;;14.87;40.52;98588.16;4433527;32;33603;-85
2022/04/22 15:37:42;;;;;;;;;;;;;;;14.85;40.88;98585.66;4439315;32;34832;-84
2022/04/22 15:40:10;;;;;;;;;;;;;;;14.71;40.83;98577.78;4436858;32;32902;-83
2022/04/22 15:42:42;;;;;;;;;;;;;;;14.68;41.04;98576.34;4438076;32;34357;-84
2022/04/22 15:45:10;;;;;;;;;;;;;;;14.84;40.17;98577.84;4441990;32;36605;-84
2022/04/22 15:47:38;;;;;;;;;;;;;;;14.47;41.10;98575.63;4438389;32;33077;-84
2022/04/22 15:50:07;;;;;;;;;;;;;;;14.47;40.81;98576.44;4454088;32;34627;-85
2022/04/22 15:52:37;;;;;;;;;;;;;;;14.39;42.95;98579.28;4449006;32;32568;-87
2022/04/22 15:55:06;;;;;;;;;;;;;;;14.42;46.67;98574.56;4413648;32;34106;-87
2022/04/22 15:57:34;;;;;;;;;;;;;;;13.87;50.10;98580.75;4448229;32;34350;-87
2022/04/22 16:00:05;;;;;;;;;;;;;;;13.73;52.24;98588.84;4433326;32;32608;-87
2022/04/22 16:02:54;;;;;;;;;;;;;;;13.56;54.45;98592.81;4425964;32;32976;-89
2022/04/22 16:05:24;;;;;;;;;;;;;;;13.46;51.45;98589.63;4452001;32;35103;-87
2022/04/22 16:07:59;;;;;;;;;;;;;;;13.21;53.70;98599.06;4444147;32;34151;-87
2022/04/22 16:10:28;;;;;;;;;;;;;;;13.14;51.63;98590.16;4445741;32;33735;-85
2022/04/22 16:15:46;;;;;;;;;;;;;;;13.25;52.10;98589.63;4451349;32;34196;-85
2022/04/22 16:18:15;;;;;;;;;;;;;;;12.74;55.38;98578.16;4442861;32;34069;-85
2022/04/22 16:20:43;;;;;;;;;;;;;;;13.06;53.62;98576.91;4406718;32;32747;-85
2022/04/22 16:23:13;;;;;;;;;;;;;;;13.31;52.88;98580.88;4424669;32;33769;-86
2022/04/22 16:25:43;;;;;;;;;;;;;;;13.45;50.96;98583.47;4426669;32;35724;-85
2022/04/22 16:28:10;;;;;;;;;;;;;;;13.36;53.30;98578.44;4431779;32;33566;-85
2022/04/22 16:30:38;;;;;;;;;;;;;;;13.49;51.67;98587.41;4439815;32;34417;-86
2022/04/22 16:33:08;;;;;;;;;;;;;;;13.39;51.21;98591.44;4414616;32;34005;-85
2022/04/22 16:35:36;;;;;;;;;;;;;;;13.13;51.17;98573.28;4438005;32;35797;-85
2022/04/22 16:38:05;;;;;;;;;;;;;;;13.02;51.36;98564.97;4429236;32;33690;-87
2022/04/22 16:40:34;;;;;;;;;;;;;;;13.15;51.34;98568.59;4438887;32;32174;-86
2022/04/22 16:43:01;;;;;;;;;;;;;;;13.10;50.21;98563.00;4422015;32;33785;-85
2022/04/22 16:45:46;;;;;;;;;;;;;;;13.02;50.47;98570.31;4413132;32;34547;-86
2022/04/22 16:48:14;;;;;;;;;;;;;;;12.96;52.80;98555.03;4419443;32;32562;-87
2022/04/22 16:51:03;;;;;;;;;;;;;;;12.77;55.10;98560.94;4432252;32;33085;-87
2022/04/22 16:53:39;;;;;;;;;;;;;;;12.56;57.29;98572.38;4431765;32;33896;-87
2022/04/22 16:56:15;;;;;;;;;;;;;;;12.49;58.23;98566.13;4435441;32;35224;-87
2022/04/22 16:58:46;;;;;;;;;;;;;;;12.14;60.42;98584.72;4431548;32;35244;-85
2022/04/22 17:01:16;;;;;;;;;;;;;;;11.78;61.02;98570.44;4420584;32;34039;-86
2022/04/22 17:03:52;;;;;;;;;;;;;;;11.85;60.62;98564.22;4425975;32;34575;-90
2022/04/22 17:06:41;;;;;;;;;;;;;;;11.35;61.42;98571.13;4425015;32;36141;-88
2022/04/22 17:09:09;;;;;;;;;;;;;;;11.58;61.77;98569.28;4430562;32;33249;-87
2022/04/22 17:11:36;;;;;;;;;;;;;;;11.67;60.85;98581.53;4416601;32;31431;-89
2022/04/22 17:22:57;;;;;;;;;;;;;;;11.07;66.83;98595.78;4436723;32;33921;-87
2022/04/22 17:25:47;;;;;;;;;;;;;;;10.84;66.06;98589.63;4427923;32;33481;-89
2022/04/22 17:28:24;;;;;;;;;;;;;;;11.17;66.79;98599.88;4414051;32;35143;-89
2022/04/22 17:30:57;;;;;;;;;;;;;;;11.21;66.44;98585.22;4438919;32;34609;-90
2022/04/22 17:33:50;;;;;;;;;;;;;;;11.34;66.70;98590.78;4413966;32;31705;-89
2022/04/22 17:36:21;;;;;;;;;;;;;;;11.58;66.61;98596.78;4407077;32;33450;-88
2022/04/22 17:38:51;;;;;;;;;;;;;;;11.76;65.21;98604.44;4418974;32;34917;-88
2022/04/22 17:41:21;;;;;;;;;;;;;;;12.02;65.46;98620.84;4417515;32;33615;-87
2022/04/22 17:43:52;;;;;;;;;;;;;;;12.26;64.06;98629.41;4422909;32;33125;-90
2022/04/22 17:46:21;;;;;;;;;;;;;;;12.14;63.36;98664.72;4418484;32;33696;-88
2022/04/22 17:49:05;;;;;;;;;;;;;;;12.08;64.72;98684.94;4420738;32;35659;-89
2022/04/22 17:51:43;;;;;;;;;;;;;;;12.32;64.70;98695.38;4427077;32;34520;-90
2022/04/22 17:54:12;;;;;;;;;;;;;;;12.18;66.33;98701.50;4418034;32;32704;-86
2022/04/22 17:56:45;;;;;;;;;;;;;;;12.10;66.02;98704.22;4436675;32;33686;-89
2022/04/22 17:59:30;;;;;;;;;;;;;;;11.94;66.73;98727.53;4427757;32;34157;-88
2022/04/22 18:02:08;;;;;;;;;;;;;;;11.85;68.37;98741.91;4425417;32;35101;-85
2022/04/22 18:04:40;;;;;;;;;;;;;;;12.15;66.81;98725.84;4428273;32;32368;-91
2022/04/22 18:07:13;;;;;;;;;;;;;;;12.37;66.22;98737.50;4438342;32;33039;-81
2022/04/22 18:09:43;;;;;;;;;;;;;;;12.34;66.12;98752.03;4427129;32;33848;-94
2022/04/22 18:12:31;;;;;;;;;;;;;;;12.15;67.23;98765.84;4438878;32;33266;-94
2022/04/22 18:18:14;;;;;;;;;;;;;;;12.18;68.17;98756.69;4439717;32;34349;-93
2022/04/22 18:21:04;;;;;;;;;;;;;;;12.57;66.92;98757.31;4422732;32;34779;-94
2022/04/22 18:23:51;;;;;;;;;;;;;;;12.73;66.32;98738.44;4417360;32;33450;-95
2022/04/22 18:26:25;;;;;;;;;;;;;;;12.65;66.94;98743.91;4426168;32;33026;-94
2022/04/22 18:28:56;;;;;;;;;;;;;;;12.91;65.81;98734.41;4439495;32;33184;-94
2022/04/22 18:31:43;;;;;;;;;;;;;;;12.63;66.33;98722.72;4428691;32;33942;-94
2022/04/22 18:34:32;;;;;;;;;;;;;;;12.56;67.17;98719.13;4434799;32;33392;-95
2022/04/22 18:37:25;;;;;;;;;;;;;;;12.90;65.74;98721.25;4428884;32;32650;-94
2022/04/22 18:40:13;;;;;;;;;;;;;;;12.50;67.67;98729.69;4428268;32;33311;-94
2022/04/22 18:43:04;;;;;;;;;;;;;;;12.79;66.78;98727.03;4439071;32;34178;-95
2022/04/22 18:45:54;;;;;;;;;;;;;;;12.77;66.90;98718.41;4441438;32;33317;-95
2022/04/22 18:48:42;;;;;;;;;;;;;;;12.90;66.07;98713.22;4428254;32;34418;-95
2022/04/22 18:51:30;;;;;;;;;;;;;;;12.96;65.55;98718.69;4429265;32;32831;-94
2022/04/22 19:08:09;;;;;;;;;;;;;;;;;;;;;
2022/04/22 19:18:50;;;;;;;;;;;;;;;12.90;64.46;98708.72;4444735;32;33799;-93
2022/04/22 19:43:32;;;;;;;;;;;;;;;12.99;63.99;98696.97;4359879;32;32423;-93
2022/04/22 19:50:04;;;;;;;;;;;;;;;13.60;61.23;98688.44;4374166;32;36131;-91
2022/04/22 19:52:51;;;;;;;;;;;;;;;;;;;;;
2022/04/22 20:07:11;;;;;;;;;;;;;;;;;;;;;
2022/04/22 20:10:45;;;;;;;;;;;;;;;11.92;66.29;98654.94;4339906;32;32013;-96
2022/04/22 20:26:51;;;;;;;;;;;;;;;11.88;67.61;98657.13;4367517;32;34740;-94